Time;durP1;ratioP1;P1;durP2;ratioP2;P2;SDS_P1;SDS_P2;PMS_P1;PMS_P2;Temp;Humidity;BMP_temperature;BMP_pressure;BME280_temperature;BME280_humidity;BME280_pressure;Samples;Min_cycle;Max_cycle;Signal;HPM_P1;HPM_P2
2022/05/02 00:09:50;;;;;;;28.1;33.8;;;;;;;-133;84.3;78770;;;;
2022/05/02 00:19:50;;;;;;;28.1;33.8;;;;;;;-133;84.5;78780;;;;
2022/05/02 00:30:50;;;;;;;28.1;33.8;;;;;;;-133;84.4;78810;;;;
2022/05/02 00:40:50;;;;;;;23.3;27.1;;;;;;;-133;89.8;78850;;;;
2022/05/02 00:50:50;;;;;;;23.3;27.1;;;;;;;-133;89;78840;;;;
2022/05/02 01:01:50;;;;;;;23.3;27.1;;;;;;;-133;87.7;78840;;;;
2022/05/02 01:11:50;;;;;;;20.8;25.3;;;;;;;-133;87.4;78840;;;;
2022/05/02 01:21:50;;;;;;;20.8;25.3;;;;;;;-133;89.6;78840;;;;
2022/05/02 01:31:50;;;;;;;20.8;25.3;;;;;;;-133;90;78850;;;;
2022/05/02 01:42:50;;;;;;;19.1;21.5;;;;;;;-133;90;78840;;;;
2022/05/02 01:52:50;;;;;;;19.1;21.5;;;;;;;-133;89.7;78830;;;;
2022/05/02 02:03:50;;;;;;;19.1;21.5;;;;;;;-133;89.9;78850;;;;
2022/05/02 02:13:50;;;;;;;19.5;22.1;;;;;;;-133;91.3;78860;;;;
2022/05/02 02:24:50;;;;;;;19.5;22.1;;;;;;;-133;89.4;78870;;;;
2022/05/02 02:34:50;;;;;;;19.5;22.1;;;;;;;-133;89.7;78900;;;;
2022/05/02 02:44:50;;;;;;;20.2;22.9;;;;;;;-133;92.4;78930;;;;
2022/05/02 02:55:50;;;;;;;20.2;22.9;;;;;;;-133;93.3;78960;;;;
2022/05/02 03:06:50;;;;;;;27.5;32.5;;;;;;;-133;94;78990;;;;
2022/05/02 03:16:50;;;;;;;27.5;32.5;;;;;;;-133;95.7;79010;;;;
2022/05/02 03:27:50;;;;;;;27.5;32.5;;;;;;;-133;95.9;79020;;;;
2022/05/02 03:37:50;;;;;;;30.8;34.3;;;;;;;-133;97.5;79000;;;;
2022/05/02 03:47:50;;;;;;;30.8;34.3;;;;;;;-133;97;78960;;;;
2022/05/02 03:57:50;;;;;;;30.8;34.3;;;;;;;-133;97.7;78930;;;;
2022/05/02 04:08:50;;;;;;;28.1;32.6;;;;;;;-133;97.6;78920;;;;
2022/05/02 04:19:50;;;;;;;28.1;32.6;;;;;;;-133;96.9;78880;;;;
2022/05/02 04:30:50;;;;;;;28.1;32.6;;;;;;;-133;95.4;78830;;;;
2022/05/02 04:40:50;;;;;;;24;26.7;;;;;;;-133;94.1;78770;;;;
2022/05/02 04:51:50;;;;;;;24;26.7;;;;;;;-133;91.7;78740;;;;
2022/05/02 05:01:50;;;;;;;24;26.7;;;;;;;-133;91.6;78730;;;;
2022/05/02 05:12:50;;;;;;;24.3;27.6;;;;;;;-133;91.2;78690;;;;
2022/05/02 05:22:50;;;;;;;24.3;27.6;;;;;;;-133;90.8;78680;;;;
2022/05/02 05:33:51;;;;;;;24.3;27.6;;;;;;;-133;88.4;78600;;;;
2022/05/02 05:44:50;;;;;;;39.8;52.8;;;;;;;-133;87.3;78550;;;;
2022/05/02 05:55:50;;;;;;;39.8;52.8;;;;;;;-133;85.7;78500;;;;
2022/05/02 06:06:50;;;;;;;28.1;31.7;;;;;;;-133;84.6;78440;;;;
2022/05/02 06:18:55;;;;;;;28.1;31.7;;;;;;;-133;83.9;78410;;;;
2022/05/02 06:27:50;;;;;;;28.1;31.7;;;;;;;-133;83.1;78360;;;;
2022/05/02 06:37:50;;;;;;;24.1;29.1;;;;;;;-133;79.7;78320;;;;
2022/05/02 06:48:50;;;;;;;24.1;29.1;;;;;;;-133;76.9;78260;;;;
2022/05/02 06:58:50;;;;;;;24.1;29.1;;;;;;;-133;72.2;78230;;;;
2022/05/02 07:08:50;;;;;;;18;21.1;;;;;;;-133;70.4;78160;;;;
2022/05/02 07:18:51;;;;;;;18;21.1;;;;;;;-133;67.2;78090;;;;
2022/05/02 07:28:50;;;;;;;18;21.1;;;;;;;-133;65;78010;;;;
2022/05/02 07:39:50;;;;;;;15.9;17.8;;;;;;;-133;61.8;77980;;;;
2022/05/02 08:00:50;;;;;;;15.9;17.8;;;;;;;-133;59.1;77830;;;;
2022/05/02 08:11:51;;;;;;;15.2;18.2;;;;;;;-133;59.1;77770;;;;
2022/05/02 08:32:50;;;;;;;15.2;18.2;;;;;;;-133;53.8;77690;;;;
2022/05/02 08:42:50;;;;;;;15.9;21.3;;;;;;;-133;51.9;77630;;;;
2022/05/02 08:52:52;;;;;;;15.9;21.3;;;;;;;-133;50.8;77610;;;;
2022/05/02 09:02:50;;;;;;;15.9;21.3;;;;;;;-133;50;77590;;;;
2022/05/02 09:12:50;;;;;;;15.9;22.9;;;;;;;-133;47.4;77540;;;;
2022/05/02 09:23:50;;;;;;;15.9;22.9;;;;;;;-133;43.2;77500;;;;
2022/05/02 09:34:50;;;;;;;11.6;16.4;;;;;;;-133;43.3;77440;;;;
2022/05/02 09:56:55;;;;;;;11.6;16.4;;;;;;;-133;40.1;77400;;;;
2022/05/02 10:06:50;;;;;;;8.4;12.4;;;;;;;-133;39.9;77390;;;;
2022/05/02 10:16:50;;;;;;;8.4;12.4;;;;;;;-133;39.8;77360;;;;
2022/05/02 10:27:50;;;;;;;8.4;12.4;;;;;;;-133;38.2;77290;;;;
2022/05/02 10:37:51;;;;;;;7.9;10.2;;;;;;;-133;37.3;77300;;;;
2022/05/02 10:47:50;;;;;;;7.9;10.2;;;;;;;-133;41;77260;;;;
2022/05/02 10:57:51;;;;;;;7.9;10.2;;;;;;;-133;36.9;77280;;;;
2022/05/02 11:07:51;;;;;;;7.2;9.8;;;;;;;-133;37.7;77190;;;;
2022/05/02 11:28:50;;;;;;;7.2;9.8;;;;;;;-133;35.6;77250;;;;
2022/05/02 11:39:50;;;;;;;6.7;9.9;;;;;;;-133;37.9;77090;;;;
2022/05/02 11:49:50;;;;;;;6.7;9.9;;;;;;;-133;33.4;77050;;;;
2022/05/02 11:59:51;;;;;;;6.7;9.9;;;;;;;-133;33.3;76990;;;;
2022/05/02 12:09:52;;;;;;;5.8;9.5;;;;;;;-133;33.5;77000;;;;
2022/05/02 12:20:50;;;;;;;5.8;9.5;;;;;;;-133;32.9;77040;;;;
2022/05/02 12:30:51;;;;;;;5.8;9.5;;;;;;;-133;31.7;76980;;;;
2022/05/02 12:41:52;;;;;;;6.4;13.4;;;;;;;-133;31.2;76910;;;;
2022/05/02 12:51:51;;;;;;;6.4;13.4;;;;;;;-133;31.1;76880;;;;
2022/05/02 13:02:51;;;;;;;6.4;13.4;;;;;;;-133;30.4;76890;;;;
2022/05/02 13:13:52;;;;;;;5.6;8.5;;;;;;;-133;30.9;76840;;;;
2022/05/02 13:23:51;;;;;;;5.6;8.5;;;;;;;-133;31.7;76760;;;;
2022/05/02 13:34:51;;;;;;;5.7;8.6;;;;;;;-133;29.2;76770;;;;
2022/05/02 13:45:51;;;;;;;5.7;8.6;;;;;;;-133;30.7;76860;;;;
2022/05/02 13:55:51;;;;;;;5.7;8.6;;;;;;;-133;31.5;76870;;;;
2022/05/02 14:05:59;;;;;;;5.8;9.1;;;;;;;-133;30.8;76820;;;;
2022/05/02 14:15:51;;;;;;;5.8;9.1;;;;;;;-133;30.1;76820;;;;
2022/05/02 14:26:51;;;;;;;5.8;9.1;;;;;;;-133;27.7;76740;;;;
2022/05/02 14:36:51;;;;;;;6.4;10.8;;;;;;;-133;28.1;76720;;;;
2022/05/02 14:46:51;;;;;;;6.4;10.8;;;;;;;-133;29.8;76730;;;;
2022/05/02 14:56:51;;;;;;;6.4;10.8;;;;;;;-133;28.8;76760;;;;
2022/05/02 15:06:51;;;;;;;6.2;10.9;;;;;;;-133;27.7;76640;;;;
2022/05/02 15:17:51;;;;;;;6.2;10.9;;;;;;;-133;25.1;76420;;;;
2022/05/02 15:38:51;;;;;;;5.2;8.2;;;;;;;-133;23.1;76370;;;;
2022/05/02 15:48:51;;;;;;;5.2;8.2;;;;;;;-133;23;76270;;;;
2022/05/02 15:58:51;;;;;;;5.2;8.2;;;;;;;-133;24.1;76500;;;;
2022/05/02 16:10:51;;;;;;;5.5;11.1;;;;;;;-133;25.4;76470;;;;
2022/05/02 16:20:51;;;;;;;5.5;11.1;;;;;;;-133;27.2;76690;;;;
2022/05/02 16:31:51;;;;;;;5.5;11.1;;;;;;;-133;30.1;76850;;;;
2022/05/02 16:42:51;;;;;;;4.5;7.6;;;;;;;-133;32.5;76980;;;;
2022/05/02 16:52:51;;;;;;;4.5;7.6;;;;;;;-133;34.7;77040;;;;
2022/05/02 17:02:51;;;;;;;4.5;7.6;;;;;;;-133;35.9;77120;;;;
2022/05/02 17:13:51;;;;;;;25.1;42.3;;;;;;;-133;36.5;77200;;;;
2022/05/02 17:23:51;;;;;;;25.1;42.3;;;;;;;-133;37.2;77250;;;;
2022/05/02 17:34:52;;;;;;;6;9.1;;;;;;;-133;40.3;77310;;;;
2022/05/02 17:45:51;;;;;;;6;9.1;;;;;;;-133;41.9;77390;;;;
2022/05/02 17:55:51;;;;;;;6;9.1;;;;;;;-133;43.6;77460;;;;
2022/05/02 18:06:51;;;;;;;6.9;11.8;;;;;;;-133;45.5;77530;;;;
2022/05/02 18:16:51;;;;;;;6.9;11.8;;;;;;;-133;46;77580;;;;
2022/05/02 18:27:51;;;;;;;6.9;11.8;;;;;;;-133;48.1;77640;;;;
2022/05/02 18:38:51;;;;;;;8.6;12.2;;;;;;;-133;48.5;77690;;;;
2022/05/02 18:59:51;;;;;;;8.6;12.2;;;;;;;-133;53.8;77790;;;;
2022/05/02 19:10:51;;;;;;;13.4;19.8;;;;;;;-133;54.2;77820;;;;
2022/05/02 19:20:51;;;;;;;13.4;19.8;;;;;;;-133;55.2;77850;;;;
2022/05/02 19:30:51;;;;;;;13.4;19.8;;;;;;;-133;54;77890;;;;
2022/05/02 19:41:51;;;;;;;23.7;28.3;;;;;;;-133;56.8;77950;;;;
2022/05/02 19:51:51;;;;;;;23.7;28.3;;;;;;;-133;57.7;78000;;;;
2022/05/02 20:01:51;;;;;;;23.7;28.3;;;;;;;-133;58.3;78040;;;;
2022/05/02 20:12:51;;;;;;;20.9;26.6;;;;;;;-133;60.2;78080;;;;
2022/05/02 20:22:51;;;;;;;20.9;26.6;;;;;;;-133;61.7;78110;;;;
2022/05/02 20:43:51;;;;;;;19.9;26.9;;;;;;;-133;64;78150;;;;
2022/05/02 20:53:51;;;;;;;19.9;26.9;;;;;;;-133;65.9;78180;;;;
2022/05/02 21:04:51;;;;;;;23.6;28.6;;;;;;;-133;68.9;78190;;;;
2022/05/02 21:15:51;;;;;;;23.6;28.6;;;;;;;-133;68;78220;;;;
2022/05/02 21:26:51;;;;;;;23.6;28.6;;;;;;;-133;68.2;78250;;;;
2022/05/02 21:37:51;;;;;;;23.8;27.4;;;;;;;-133;71.9;78260;;;;
2022/05/02 21:47:51;;;;;;;23.8;27.4;;;;;;;-133;72.8;78290;;;;
2022/05/02 21:57:51;;;;;;;23.8;27.4;;;;;;;-133;73.6;78320;;;;
2022/05/02 22:07:51;;;;;;;28.2;34.7;;;;;;;-133;77.4;78360;;;;
2022/05/02 22:18:51;;;;;;;28.2;34.7;;;;;;;-133;76;78390;;;;
2022/05/02 22:28:51;;;;;;;28.2;34.7;;;;;;;-133;76.9;78430;;;;
2022/05/02 22:39:51;;;;;;;30.1;34.3;;;;;;;-133;79.1;78470;;;;
2022/05/02 22:49:53;;;;;;;30.1;34.3;;;;;;;-133;81.9;78480;;;;
2022/05/02 22:59:51;;;;;;;30.1;34.3;;;;;;;-133;83.4;78420;;;;
2022/05/02 23:09:51;;;;;;;27.7;31.1;;;;;;;-133;82;78390;;;;
2022/05/02 23:20:51;;;;;;;27.7;31.1;;;;;;;-133;82.7;78420;;;;
2022/05/02 23:30:51;;;;;;;27.7;31.1;;;;;;;-133;83.4;78440;;;;
2022/05/02 23:41:51;;;;;;;22.2;25.1;;;;;;;-133;84.2;78460;;;;
2022/05/02 23:51:51;;;;;;;22.2;25.1;;;;;;;-133;82.7;78500;;;;
